Terminal Aerodrome Forecast
Issued by NWS

Home | Current Version | Previous Version | Text Only | Print | Product List | Glossary On
Versions: 1 2 3 4 5 6 7 8 9 10 11 12 13 14 15 16 17 18 19 20 21 22 23
818
FTUS43 KLSX 121130
TAFUIN
TAF
KUIN 121130Z 1212/1312 VRB03KT P6SM OVC035
     FM121500 31011KT P6SM BKN025
     FM121900 32014G22KT P6SM SCT035
     FM130000 34009KT P6SM SCT250=

USA.gov is the U.S. government's official web portal to all federal, state and local government web resources and services.